VYYY/RGN METAR and TAF weather

Enter ICAO airport designator
Station Type Date Time Source
VYYY METAR 2019/05/23 18:30 UTC NOAA

VYYY 231830Z 22006KT 6000 BKN016 FEW020CB BKN100 28/25 Q1008 NOSIG


Station Type Date Time Source
VYYY Decoded METAR 2019/05/23 18:30 UTC NOAA

Yangon, Myanmar (VYYY) 16-46N 096-10E 15M
May 23, 2019 - 02:30 PM EDT / 2019.05.23 1830 UTC
Wind: from the SW (220 degrees) at 7 MPH (6 KT):0
Visibility: 3 mile(s):0
Sky conditions: mostly cloudy
Weather: Cumulonimbus clouds observed
Temperature: 82 F (28 C)
Dew Point: 77 F (25 C)
Relative Humidity: 83%
Pressure (altimeter): 29.77 in. Hg (1008 hPa)
ob: VYYY 231830Z 22006KT 6000 BKN016 FEW020CB BKN100 28/25 Q1008 NOSIG
cycle: 18

Station Type Date Time Source
VYYY TAF 2019/05/23 18:39 UTC NOAA

TAF TAF VYYY 231700Z 2318/2418 24007KT 8000 SCT016 FEW020CB BKN100
TEMPO 2322/2404 6000 HZ
TEMPO 2406/2412 23008G18KT 4000 TSRA BKN013 FEW018CB BKN090

Example: see airport list